• Join FlightAware (Why Join?)
  • Login
  • US Flag 
02:47PM EST


 

Airport Tracker/Info


-or-


 

Live Flight TrackerFlight Track Log ✈ CSH9405 ✈ 17-Jul-2014 ✈ ZSPD / PVG - ZGNN / NNG

Flight Track Log - Related Links

Times and Time Zones

All times are in EDT time to prevent confusion due to time zone crossing. See the CSH9405 flight status page for this flight to view local times or setup timezone preferences in your user account.

Time Position Orientation Groundspeed Altitude Reporting Facility
EDT Latitude Longitude Course Direction KTS MPH feet Rate Location/Type
11:31PM 30.9562 121.4428 238° Southwest  Level Estimated
11:32PM 30.9094 121.3557 238° Southwest  Level Estimated
11:33PM 30.8626 121.2686 238° Southwest  Level Estimated
11:34PM 30.8156 121.1816 238° Southwest  Level Estimated
11:35PM 30.7687 121.0947 238° Southwest  Level Estimated
11:36PM 30.7216 121.0078 238° Southwest  Level Estimated
11:37PM 30.6745 120.9211 238° Southwest  Level Estimated
11:38PM 30.6274 120.8344 238° Southwest  Level Estimated
11:39PM 30.5802 120.7478 238° Southwest  Level Estimated
11:40PM 30.5329 120.6613 238° Southwest  Level Estimated
11:41PM 30.4856 120.5749 238° Southwest  Level Estimated
11:42PM 30.4383 120.4886 238° Southwest  Level Estimated
11:43PM 30.3908 120.4024 237° Southwest  Level Estimated
11:44PM 30.3433 120.3162 237° Southwest  Level Estimated
11:45PM 30.2958 120.2301 237° Southwest  Level Estimated
11:46PM 30.2482 120.1441 237° Southwest  Level Estimated
11:47PM 30.2006 120.0582 237° Southwest  Level Estimated
11:48PM 30.1528 119.9724 237° Southwest  Level Estimated
11:49PM 30.1051 119.8867 237° Southwest  Level Estimated
11:50PM 30.0573 119.8010 237° Southwest  Level Estimated
11:51PM 30.0094 119.7154 237° Southwest  Level Estimated
11:52PM 29.9615 119.6300 237° Southwest  Level Estimated
11:53PM 29.9135 119.5445 237° Southwest  Level Estimated
11:54PM 29.8654 119.4592 237° Southwest  Level Estimated
11:55PM 29.8173 119.3740 237° Southwest  Level Estimated
11:56PM 29.7692 119.2888 237° Southwest  Level Estimated
11:57PM 29.7210 119.2037 237° Southwest  Level Estimated
11:58PM 29.6727 119.1187 237° Southwest  Level Estimated
11:59PM 29.6244 119.0338 237° Southwest  Level Estimated
12:00AM 29.5760 118.9490 237° Southwest  Level Estimated
12:01AM 29.5276 118.8642 237° Southwest  Level Estimated
12:02AM 29.4791 118.7795 237° Southwest  Level Estimated
12:03AM 29.4306 118.6949 237° Southwest  Level Estimated
12:04AM 29.3820 118.6104 237° Southwest  Level Estimated
12:05AM 29.3334 118.5260 237° Southwest  Level Estimated
12:06AM 29.2847 118.4417 237° Southwest  Level Estimated
12:07AM 29.2359 118.3574 236° Southwest  Level Estimated
12:08AM 29.1871 118.2732 236° Southwest  Level Estimated
12:09AM 29.1383 118.1891 236° Southwest  Level Estimated
12:10AM 29.0894 118.1050 236° Southwest  Level Estimated
12:11AM 29.0404 118.0211 236° Southwest  Level Estimated
12:12AM 28.9914 117.9372 236° Southwest  Level Estimated
12:13AM 28.9424 117.8534 236° Southwest  Level Estimated
12:14AM 28.8933 117.7697 236° Southwest  Level Estimated
12:15AM 28.8441 117.6861 236° Southwest  Level Estimated
12:16AM 28.7949 117.6025 236° Southwest  Level Estimated
12:17AM 28.7456 117.5191 236° Southwest  Level Estimated
12:18AM 28.6963 117.4357 236° Southwest  Level Estimated
12:19AM 28.6469 117.3523 236° Southwest  Level Estimated
12:20AM 28.5975 117.2691 236° Southwest  Level Estimated
12:21AM 28.5481 117.1860 236° Southwest  Level Estimated
12:22AM 28.4985 117.1029 236° Southwest  Level Estimated
12:23AM 28.4490 117.0199 236° Southwest  Level Estimated
12:24AM 28.3993 116.9369 236° Southwest  Level Estimated
12:25AM 28.3497 116.8541 236° Southwest  Level Estimated
12:26AM 28.3000 116.7713 236° Southwest  Level Estimated
12:27AM 28.2502 116.6886 236° Southwest  Level Estimated
12:28AM 28.2004 116.6060 236° Southwest  Level Estimated
12:29AM 28.1505 116.5235 236° Southwest  Level Estimated
12:30AM 28.1006 116.4410 236° Southwest  Level Estimated
12:31AM 28.0506 116.3586 236° Southwest  Level Estimated
12:32AM 28.0006 116.2763 235° Southwest  Level Estimated
12:33AM 27.9505 116.1941 235° Southwest  Level Estimated
12:34AM 27.9004 116.1119 235° Southwest  Level Estimated
12:35AM 27.8503 116.0298 235° Southwest  Level Estimated
12:36AM 27.8001 115.9478 235° Southwest  Level Estimated
12:37AM 27.7498 115.8659 235° Southwest  Level Estimated
12:38AM 27.6995 115.7840 235° Southwest  Level Estimated
12:39AM 27.6491 115.7023 235° Southwest  Level Estimated
12:40AM 27.5987 115.6206 235° Southwest  Level Estimated
12:41AM 27.5483 115.5389 235° Southwest  Level Estimated
12:42AM 27.4978 115.4574 235° Southwest  Level Estimated
12:43AM 27.4472 115.3759 235° Southwest  Level Estimated
12:44AM 27.3966 115.2945 235° Southwest  Level Estimated
12:45AM 27.3460 115.2132 235° Southwest  Level Estimated
12:46AM 27.2953 115.1319 235° Southwest  Level Estimated
12:47AM 27.2446 115.0507 235° Southwest  Level Estimated
12:48AM 27.1938 114.9696 235° Southwest  Level Estimated
12:49AM 27.1430 114.8886 235° Southwest  Level Estimated
12:50AM 27.0921 114.8076 235° Southwest  Level Estimated
12:51AM 27.0411 114.7268 235° Southwest  Level Estimated
12:52AM 26.9902 114.6459 235° Southwest  Level Estimated
12:53AM 26.9392 114.5652 235° Southwest  Level Estimated
12:54AM 26.8881 114.4845 235° Southwest  Level Estimated
12:55AM 26.8370 114.4040 235° Southwest  Level Estimated
12:56AM 26.7859 114.3234 235° Southwest  Level Estimated
12:57AM 26.7347 114.2430 235° Southwest  Level Estimated
12:58AM 26.6834 114.1626 235° Southwest  Level Estimated
12:59AM 26.6321 114.0823 234° Southwest  Level Estimated
01:00AM 26.5808 114.0021 234° Southwest  Level Estimated
01:01AM 26.5294 113.9219 234° Southwest  Level Estimated
01:02AM 26.4780 113.8418 234° Southwest  Level Estimated
01:03AM 26.4265 113.7618 234° Southwest  Level Estimated
01:04AM 26.3750 113.6819 234° Southwest  Level Estimated
01:05AM 26.3235 113.6020 234° Southwest  Level Estimated
01:06AM 26.2719 113.5222 234° Southwest  Level Estimated
01:07AM 26.2202 113.4425 234° Southwest  Level Estimated
01:08AM 26.1685 113.3628 234° Southwest  Level Estimated
01:09AM 26.1168 113.2832 234° Southwest  Level Estimated
01:10AM 26.0650 113.2037 234° Southwest  Level Estimated
01:11AM 26.0132 113.1243 234° Southwest  Level Estimated
01:12AM 25.9613 113.0449 234° Southwest  Level Estimated
01:13AM 25.9094 112.9656 234° Southwest  Level Estimated
01:14AM 25.8575 112.8863 234° Southwest  Level Estimated
01:15AM 25.8055 112.8072 234° Southwest  Level Estimated
01:16AM 25.7535 112.7281 234° Southwest  Level Estimated
01:17AM 25.7014 112.6490 234° Southwest  Level Estimated
01:18AM 25.6493 112.5701 234° Southwest  Level Estimated
01:19AM 25.5971 112.4912 234° Southwest  Level Estimated
01:20AM 25.5449 112.4124 234° Southwest  Level Estimated
01:21AM 25.4927 112.3336 234° Southwest  Level Estimated
01:22AM 25.4404 112.2549 234° Southwest  Level Estimated
01:23AM 25.3880 112.1763 234° Southwest  Level Estimated
01:24AM 25.3357 112.0977 234° Southwest  Level Estimated
01:25AM 25.2833 112.0193 234° Southwest  Level Estimated
01:26AM 25.2308 111.9408 234° Southwest  Level Estimated
01:27AM 25.1783 111.8625 233° Southwest  Level Estimated
01:28AM 25.1258 111.7842 233° Southwest  Level Estimated
01:29AM 25.0732 111.7060 233° Southwest  Level Estimated
01:30AM 25.0206 111.6279 233° Southwest  Level Estimated
01:31AM 24.9679 111.5498 233° Southwest  Level Estimated
01:32AM 24.9152 111.4718 233° Southwest  Level Estimated
01:33AM 24.8625 111.3938 233° Southwest  Level Estimated
01:34AM 24.8097 111.3160 233° Southwest  Level Estimated
01:35AM 24.7569 111.2381 233° Southwest  Level Estimated
01:36AM 24.7040 111.1604 233° Southwest  Level Estimated
01:37AM 24.6511 111.0827 233° Southwest  Level Estimated
01:38AM 24.5982 111.0051 233° Southwest  Level Estimated
01:39AM 24.5452 110.9276 233° Southwest  Level Estimated
01:40AM 24.4921 110.8501 233° Southwest  Level Estimated
01:41AM 24.4391 110.7727 233° Southwest  Level Estimated
01:42AM 24.3860 110.6953 233° Southwest  Level Estimated
01:43AM 24.3328 110.6180 233° Southwest  Level Estimated
01:44AM 24.2797 110.5408 233° Southwest  Level Estimated
01:45AM 24.2264 110.4637 233° Southwest  Level Estimated
01:46AM 24.1732 110.3866 233° Southwest  Level Estimated
01:47AM 24.1199 110.3095 233° Southwest  Level Estimated
01:48AM 24.0666 110.2326 233° Southwest  Level Estimated
01:49AM 24.0132 110.1557 233° Southwest  Level Estimated
01:50AM 23.9598 110.0788 233° Southwest  Level Estimated
01:51AM 23.9063 110.0021 233° Southwest  Level Estimated
01:52AM 23.8528 109.9253 233° Southwest  Level Estimated
01:53AM 23.7993 109.8487 233° Southwest  Level Estimated
01:54AM 23.7458 109.7721 233° Southwest  Level Estimated
01:55AM 23.6922 109.6956 233° Southwest  Level Estimated
01:56AM 23.6385 109.6191 233° Southwest  Level Estimated
01:57AM 23.5848 109.5427 233° Southwest  Level Estimated
01:58AM 23.5311 109.4664 233° Southwest  Level Estimated
01:59AM 23.4774 109.3902 232° Southwest  Level Estimated
02:00AM 23.4236 109.3139 232° Southwest  Level Estimated
02:01AM 23.3698 109.2378 232° Southwest  Level Estimated
02:02AM 23.3159 109.1617 232° Southwest  Level Estimated
02:03AM 23.2620 109.0857 232° Southwest  Level Estimated
02:04AM 23.2081 109.0097 232° Southwest  Level Estimated
02:05AM 23.1541 108.9338 232° Southwest  Level Estimated
02:06AM 23.1001 108.8580 232° Southwest  Level Estimated
02:07AM 23.0460 108.7822 232° Southwest  Level Estimated
02:08AM 22.9920 108.7065 232° Southwest  Level Estimated
02:09AM 22.9379 108.6309 232° Southwest  Level Estimated
02:10AM 22.8837 108.5553 232° Southwest  Level Estimated
02:11AM 22.8295 108.4797 232° Southwest  Level Estimated
02:12AM 22.7753 108.4043 232° Southwest  Level Estimated
02:13AM 22.7210 108.3288 232° Southwest  Level Estimated
02:14AM 22.6667 108.2535 232° Southwest  Level Estimated
02:15AM 22.6124 108.1782 232° Southwest  Level Estimated
02:16AM 22.6083 108.1724 232° Southwest  Level Estimated
02:17AM 22.6083 108.1724 North  Level Estimated
02:18AM 22.6083 108.1724 North  Level Estimated
02:19AM 22.6083 108.1724 North  Level Estimated
02:20AM 22.6083 108.1724 North  Level Estimated
02:21AM 22.6083 108.1724 North  Level Estimated
02:22AM 22.6083 108.1724 North  Level Estimated
02:23AM 22.6083 108.1724 North  Level Estimated
02:24AM 22.6083 108.1724 North  Level Estimated
02:25AM 22.6083 108.1724 North  Level Estimated
02:26AM 22.6083 108.1724 North  Level Estimated
02:27AM 22.6083 108.1724 North  Level Estimated
02:28AM 22.6083 108.1724 North  Level Estimated
02:29AM 22.6083 108.1724 North  Level Estimated
02:30AM 22.6083 108.1724 North  Level Estimated
02:31AM 22.6083 108.1724 North  Level Estimated